Terminal Aerodrome Forecast
Issued by NWS El Paso, TX

Home | Current Version | Previous Version | Text Only | Print | Product List | Glossary On
Versions: 1 2 3 4 5 6 7 8 9 10 11 12 13 14
000
FTUS44 KEPZ 270000 RRA
TAFELP
TAF
KELP 270000Z 2700/2724 09016G26KT P6SM BKN040 BKN200
     FM270300 09013KT P6SM FEW020 SCT150
     FM271000 04010KT P6SM SCT020 SCT200
     FM271800 11009KT P6SM SCT200=

USA.gov is the U.S. government's official web portal to all federal, state and local government web resources and services.